Terminal Aerodrome Forecast
Issued by NWS St Louis, MO

Home | Current Version | Previous Version | Text Only | Print | Product List | Glossary On
Versions: 1 2 3 4 5 6 7 8 9 10 11 12 13 14 15 16 17 18 19 20
000
FTUS43 KLSX 251900 AAA
TAFCOU
TAF AMD
KCOU 251934Z 2520/2618 15007KT P6SM BKN250
     FM260000 09007KT P6SM BKN080
     FM260600 02015G25KT 2SM -SN OVC008
     FM261300 36012G20KT 6SM -SHSN OVC015=

USA.gov is the U.S. government's official web portal to all federal, state and local government web resources and services.